createdAt,value
2019-05-18T02:08:56.695Z,99.90
2019-05-18T02:14:28.555Z,99.90
2019-05-18T02:20:54.909Z,99.90
2019-05-18T02:26:47.646Z,99.90
2019-05-18T02:54:26.405Z,99.90
2019-05-18T03:22:15.613Z,99.90
2019-05-18T03:33:34.139Z,99.90
2019-05-18T04:40:02.990Z,99.90
2019-05-18T04:45:37.090Z,99.90
2019-05-18T04:56:52.891Z,99.90
2019-05-18T05:07:45.828Z,99.90
2019-05-18T05:18:39.160Z,99.90
2019-05-18T05:29:57.808Z,99.90
2019-05-18T05:35:17.157Z,99.90
2019-05-18T05:41:04.536Z,99.90
2019-05-18T05:46:13.380Z,99.90
2019-05-18T05:51:42.185Z,99.90
2019-05-18T05:57:20.238Z,99.90
2019-05-18T06:02:45.793Z,99.90
2019-05-18T06:08:09.099Z,99.90
2019-05-18T06:13:48.510Z,99.90
2019-05-18T06:19:36.943Z,99.90
2019-05-18T06:24:45.448Z,99.90
2019-05-18T06:30:18.504Z,99.90
2019-05-18T06:35:38.969Z,99.90
2019-05-18T06:41:39.402Z,99.90
2019-05-18T06:46:56.411Z,99.90
2019-05-18T06:52:55.587Z,99.90
2019-05-18T06:58:38.560Z,99.90
2019-05-18T07:03:47.836Z,99.90
2019-05-18T07:09:15.737Z,99.90
2019-05-18T07:15:00.809Z,99.90
2019-05-18T07:27:34.621Z,99.90
2019-05-18T07:33:37.446Z,99.90
2019-05-18T07:44:52.137Z,99.90
2019-05-18T07:50:28.921Z,99.90
2019-05-18T07:55:51.220Z,99.90
2019-05-18T08:02:41.614Z,99.90
2019-05-18T08:07:40.016Z,99.90
2019-05-18T08:13:07.141Z,99.90
2019-05-18T08:18:05.923Z,99.90
2019-05-18T08:22:59.923Z,99.90
2019-05-18T08:28:12.242Z,99.90
2019-05-18T08:33:16.801Z,99.90
2019-05-18T08:38:06.387Z,99.90
2019-05-18T08:43:24.093Z,99.90
2019-05-18T08:48:22.928Z,99.90
2019-05-18T08:53:58.842Z,98.80
2019-05-18T08:59:56.391Z,95.60
2019-05-18T09:04:41.930Z,90.00
2019-05-18T09:09:43.004Z,91.20
2019-05-18T09:14:35.450Z,87.30
2019-05-18T09:19:27.533Z,82.60
2019-05-18T09:24:20.461Z,84.40
2019-05-18T09:29:21.719Z,83.80
2019-05-18T09:34:12.521Z,84.50
2019-05-18T09:39:22.131Z,83.60
2019-05-18T09:44:21.463Z,83.80
2019-05-18T09:49:21.306Z,82.60
2019-05-18T09:54:27.824Z,81.30
2019-05-18T09:59:40.808Z,75.00
2019-05-18T10:04:39.342Z,74.00
2019-05-18T10:09:45.461Z,72.80
2019-05-18T10:14:35.776Z,71.90
2019-05-18T10:19:27.841Z,74.00
2019-05-18T10:24:28.784Z,75.50
2019-05-18T10:29:20.319Z,76.40
2019-05-18T10:34:13.355Z,81.40
2019-05-18T10:39:23.938Z,81.20
2019-05-18T10:44:15.125Z,76.60
2019-05-18T10:49:08.395Z,70.30
2019-05-18T10:54:01.028Z,65.20
2019-05-18T10:58:53.803Z,61.80
2019-05-18T11:03:45.284Z,62.00
2019-05-18T11:08:39.861Z,59.20
2019-05-18T11:14:20.980Z,60.00
2019-05-18T11:19:08.027Z,58.70
2019-05-18T11:24:11.704Z,59.80
2019-05-18T11:29:16.021Z,59.40
2019-05-18T11:34:14.413Z,63.40
2019-05-18T11:39:24.404Z,64.60
2019-05-18T11:44:13.751Z,67.40
2019-05-18T11:49:07.701Z,70.10
2019-05-18T11:54:00.173Z,66.60
2019-05-18T11:59:01.556Z,65.30
2019-05-18T12:04:02.092Z,64.80
2019-05-18T16:05:20.476Z,64.00
2019-05-18T16:10:25.658Z,43.90
2019-05-18T16:15:21.240Z,46.40
2019-05-18T16:20:15.134Z,49.70
2019-05-18T16:25:08.003Z,53.30
2019-05-18T16:30:03.217Z,66.00
2019-05-18T16:34:57.239Z,90.80
2019-05-18T16:40:01.683Z,97.30
2019-05-18T16:44:59.871Z,98.30
2019-05-18T16:55:12.983Z,99.90
2019-05-18T17:00:05.614Z,99.90
2019-05-18T17:10:23.972Z,99.90
2019-05-18T17:15:15.616Z,99.90
2019-05-18T17:20:05.941Z,99.90
2019-05-18T17:25:15.905Z,99.90
2019-05-18T17:30:05.625Z,99.90
2019-05-18T17:34:58.044Z,99.90
2019-05-18T17:39:58.718Z,99.90
2019-05-18T17:44:57.731Z,99.90
2019-05-18T17:50:00.289Z,99.90
2019-05-18T17:55:10.162Z,99.90
2019-05-18T18:00:06.474Z,99.90
2019-05-18T18:05:13.388Z,99.90
2019-05-18T18:10:34.196Z,99.90
2019-05-18T18:15:27.612Z,99.90
2019-05-18T18:20:19.628Z,99.90
2019-05-18T18:25:13.686Z,99.90
2019-05-18T18:30:17.683Z,99.90
2019-05-18T18:35:18.102Z,99.90
2019-05-18T18:40:16.729Z,99.90
2019-05-18T18:45:22.734Z,99.90
2019-05-18T18:50:33.579Z,99.90
2019-05-18T18:55:33.347Z,99.90
2019-05-18T19:00:26.500Z,99.90
2019-05-18T19:05:18.197Z,99.90
2019-05-18T19:10:25.288Z,99.90
2019-05-18T19:15:20.337Z,99.90
2019-05-18T19:20:12.586Z,99.90
2019-05-18T19:25:04.435Z,99.90
2019-05-18T19:29:58.542Z,99.90
2019-05-18T19:34:50.406Z,99.90
2019-05-18T19:39:42.395Z,99.90
2019-05-18T19:44:34.342Z,99.90
2019-05-18T19:49:26.559Z,99.90
2019-05-18T19:54:18.810Z,99.90
2019-05-18T19:59:10.891Z,99.90
2019-05-18T20:04:03.558Z,99.90
2019-05-18T20:08:55.498Z,99.90
2019-05-18T20:13:58.160Z,99.90
2019-05-18T20:18:54.235Z,99.90
2019-05-18T20:23:46.192Z,99.90
2019-05-18T20:28:37.853Z,99.90
2019-05-18T20:33:29.847Z,99.90
2019-05-18T20:38:21.657Z,99.90
2019-05-18T20:43:22.269Z,99.90
2019-05-18T20:48:22.091Z,99.90
2019-05-18T20:53:15.035Z,99.90
2019-05-18T20:58:06.448Z,99.90
2019-05-18T21:02:58.619Z,99.90
2019-05-18T21:07:59.267Z,99.90
2019-05-18T21:12:49.648Z,99.90
2019-05-18T21:17:41.964Z,99.90
2019-05-18T21:22:33.838Z,99.90
2019-05-18T21:27:26.201Z,99.90
2019-05-18T21:32:18.310Z,99.90
2019-05-18T21:37:11.230Z,99.90
2019-05-18T21:48:00.214Z,99.90
2019-05-18T21:52:59.909Z,99.90
2019-05-18T21:57:49.991Z,99.90
2019-05-18T22:02:42.174Z,99.90
2019-05-18T22:07:42.821Z,99.90
2019-05-18T22:12:36.626Z,99.90
2019-05-18T22:17:46.406Z,99.90
2019-05-18T22:27:59.789Z,99.90
2019-05-18T22:32:51.830Z,99.90
2019-05-18T22:37:43.871Z,99.90
2019-05-18T22:42:35.824Z,99.90
2019-05-18T22:47:28.083Z,99.90
2019-05-18T22:52:19.975Z,99.90
2019-05-18T22:57:12.085Z,99.90
2019-05-18T23:02:03.816Z,99.90
2019-05-18T23:07:04.158Z,99.90
2019-05-18T23:11:55.458Z,99.90
2019-05-18T23:16:47.661Z,99.90
2019-05-18T23:21:40.014Z,99.90
2019-05-18T23:26:31.954Z,99.90
2019-05-18T23:31:23.718Z,99.90
2019-05-18T23:36:15.443Z,99.90
2019-05-18T23:41:07.558Z,99.90
2019-05-18T23:45:59.535Z,99.90
2019-05-18T23:50:51.387Z,99.90
2019-05-18T23:55:52.037Z,99.90
